Terminal Aerodrome Forecast
Issued by NWS Shreveport, LA

Home | Current Version | Previous Version | Text Only | Print | Product List | Glossary On
Versions: 1 2 3 4 5 6 7 8 9 10 11 12
648
FTUS44 KSHV 202320
TAFGGG
TAF
KGGG 202320Z 2100/2124 VRB05KT P6SM VCTS SCT050CB SCT120 SCT250
     FM210300 VRB03KT P6SM FEW050 SCT250
     FM211400 18005KT P6SM FEW045 SCT250
     FM211800 16007KT P6SM SCT050=

USA.gov is the U.S. government's official web portal to all federal, state and local government web resources and services.